TEM weather

Temora Airport
New South Wales, Australia

Public forecast

Using degrees Celsius for public forecast. Weather courtesy of forecast.io.

METAR (pilot weather report)

Closest report is Wagga Wagga City Airport, 44.7 nm (82.8 km) S. Retrieved 2019/03/26 03:00 UTC (43 minutes ago):

YSWG 260300Z 21016KT CAVOK 19/03 Q1019

TAF (pilot weather forecast)

Forecast is more than 12 hours old.

Closest forecast is Wagga Wagga City Airport, 44.7 nm (82.8 km) S. Retrieved 2018/05/25 18:03 UTC (10 months ago):

TAF YSWG 251649Z 2518/2608 07008KT CAVOK